sensor_id;sensor_type;location;lat;lon;timestamp;pressure;altitude;pressure_sealevel;temperature;humidity
73600;BME280;61877;48.246;9.220;2023-05-21T00:02:23;93775.47;;;11.94;92.18
73600;BME280;61877;48.246;9.220;2023-05-21T00:04:49;93777.31;;;11.90;92.88
73600;BME280;61877;48.246;9.220;2023-05-21T00:07:14;93776.16;;;11.91;92.93
73600;BME280;61877;48.246;9.220;2023-05-21T00:10:18;93770.75;;;11.87;92.48
73600;BME280;61877;48.246;9.220;2023-05-21T00:12:47;93778.28;;;11.82;92.54
73600;BME280;61877;48.246;9.220;2023-05-21T00:15:12;93770.41;;;11.73;92.14
73600;BME280;61877;48.246;9.220;2023-05-21T00:17:38;93770.78;;;11.72;92.52
73600;BME280;61877;48.246;9.220;2023-05-21T00:20:04;93770.63;;;11.64;93.04
73600;BME280;61877;48.246;9.220;2023-05-21T00:22:30;93759.41;;;11.62;92.55
73600;BME280;61877;48.246;9.220;2023-05-21T00:24:55;93755.97;;;11.62;92.88
73600;BME280;61877;48.246;9.220;2023-05-21T00:27:21;93753.91;;;11.55;93.09
73600;BME280;61877;48.246;9.220;2023-05-21T00:29:48;93749.19;;;11.52;93.19
73600;BME280;61877;48.246;9.220;2023-05-21T00:32:13;93755.38;;;11.53;92.79
73600;BME280;61877;48.246;9.220;2023-05-21T00:34:39;93749.75;;;11.42;93.50
73600;BME280;61877;48.246;9.220;2023-05-21T00:37:04;93755.28;;;11.49;92.99
73600;BME280;61877;48.246;9.220;2023-05-21T00:39:30;93742.13;;;11.44;93.67
73600;BME280;61877;48.246;9.220;2023-05-21T00:41:56;93742.41;;;11.39;93.34
73600;BME280;61877;48.246;9.220;2023-05-21T00:44:21;93748.13;;;11.38;93.67
73600;BME280;61877;48.246;9.220;2023-05-21T00:46:48;93744.25;;;11.35;94.12
73600;BME280;61877;48.246;9.220;2023-05-21T00:49:14;93747.38;;;11.37;94.36
73600;BME280;61877;48.246;9.220;2023-05-21T00:51:40;93746.94;;;11.35;93.41
73600;BME280;61877;48.246;9.220;2023-05-21T00:54:06;93741.81;;;11.30;93.15
73600;BME280;61877;48.246;9.220;2023-05-21T00:56:31;93734.03;;;11.25;93.53
73600;BME280;61877;48.246;9.220;2023-05-21T00:58:57;93743.19;;;11.24;94.26
73600;BME280;61877;48.246;9.220;2023-05-21T01:01:26;93740.16;;;11.26;94.25
73600;BME280;61877;48.246;9.220;2023-05-21T01:03:53;93734.03;;;11.25;94.18
73600;BME280;61877;48.246;9.220;2023-05-21T01:06:18;93730.91;;;11.23;93.87
73600;BME280;61877;48.246;9.220;2023-05-21T01:08:44;93731.63;;;11.20;93.68
73600;BME280;61877;48.246;9.220;2023-05-21T01:11:10;93726.59;;;11.19;95.18
73600;BME280;61877;48.246;9.220;2023-05-21T01:13:37;93725.91;;;11.22;94.25
73600;BME280;61877;48.246;9.220;2023-05-21T01:16:04;93724.31;;;11.21;93.76
73600;BME280;61877;48.246;9.220;2023-05-21T01:18:30;93724.53;;;11.12;94.31
73600;BME280;61877;48.246;9.220;2023-05-21T01:20:58;93733.69;;;11.11;93.71
73600;BME280;61877;48.246;9.220;2023-05-21T01:23:37;93733.34;;;11.13;93.91
73600;BME280;61877;48.246;9.220;2023-05-21T01:26:02;93728.75;;;11.13;93.86
73600;BME280;61877;48.246;9.220;2023-05-21T01:28:28;93728.31;;;11.11;94.09
73600;BME280;61877;48.246;9.220;2023-05-21T01:30:53;93721.25;;;11.03;93.81
73600;BME280;61877;48.246;9.220;2023-05-21T01:33:28;93726.09;;;10.98;93.98
73600;BME280;61877;48.246;9.220;2023-05-21T01:36:01;93719.97;;;10.97;94.71
73600;BME280;61877;48.246;9.220;2023-05-21T01:38:33;93726.03;;;10.94;94.49
73600;BME280;61877;48.246;9.220;2023-05-21T01:41:09;93727.84;;;10.90;94.46
73600;BME280;61877;48.246;9.220;2023-05-21T01:43:37;93731.47;;;10.82;94.44
73600;BME280;61877;48.246;9.220;2023-05-21T01:46:04;93727.47;;;10.76;94.79
73600;BME280;61877;48.246;9.220;2023-05-21T01:48:33;93728.63;;;10.75;94.66
73600;BME280;61877;48.246;9.220;2023-05-21T01:51:00;93720.03;;;10.70;94.40
73600;BME280;61877;48.246;9.220;2023-05-21T01:53:26;93721.19;;;10.69;95.41
73600;BME280;61877;48.246;9.220;2023-05-21T01:55:52;93715.38;;;10.67;95.02
73600;BME280;61877;48.246;9.220;2023-05-21T01:58:19;93719.88;;;10.63;94.57
73600;BME280;61877;48.246;9.220;2023-05-21T02:00:45;93720.16;;;10.58;95.26
73600;BME280;61877;48.246;9.220;2023-05-21T02:03:11;93720.75;;;10.51;95.34
73600;BME280;61877;48.246;9.220;2023-05-21T02:05:40;93716.84;;;10.49;95.39
73600;BME280;61877;48.246;9.220;2023-05-21T02:08:08;93714.06;;;10.45;95.75
73600;BME280;61877;48.246;9.220;2023-05-21T02:10:33;93716.31;;;10.43;95.58
73600;BME280;61877;48.246;9.220;2023-05-21T02:12:59;93714.06;;;10.45;95.36
73600;BME280;61877;48.246;9.220;2023-05-21T02:15:26;93715.09;;;10.40;95.45
73600;BME280;61877;48.246;9.220;2023-05-21T02:17:52;93726.63;;;10.41;95.61
73600;BME280;61877;48.246;9.220;2023-05-21T02:20:17;93711.53;;;10.36;95.14
73600;BME280;61877;48.246;9.220;2023-05-21T02:22:45;93721.50;;;10.36;95.69
73600;BME280;61877;48.246;9.220;2023-05-21T02:25:15;93714.91;;;10.33;95.82
73600;BME280;61877;48.246;9.220;2023-05-21T02:27:41;93708.44;;;10.34;95.46
73600;BME280;61877;48.246;9.220;2023-05-21T02:30:08;93704.88;;;10.30;95.16
73600;BME280;61877;48.246;9.220;2023-05-21T02:32:36;93706.78;;;10.30;95.64
73600;BME280;61877;48.246;9.220;2023-05-21T02:35:03;93711.28;;;10.26;95.12
73600;BME280;61877;48.246;9.220;2023-05-21T02:37:29;93705.38;;;10.20;96.02
73600;BME280;61877;48.246;9.220;2023-05-21T02:39:55;93702.34;;;10.22;96.53
73600;BME280;61877;48.246;9.220;2023-05-21T02:42:21;93704.69;;;10.23;96.40
73600;BME280;61877;48.246;9.220;2023-05-21T02:44:47;93703.94;;;10.23;96.12
73600;BME280;61877;48.246;9.220;2023-05-21T02:50:17;93700.03;;;10.20;95.32
73600;BME280;61877;48.246;9.220;2023-05-21T02:53:07;93697.59;;;10.15;95.58
73600;BME280;61877;48.246;9.220;2023-05-21T02:55:36;93692.84;;;10.09;95.43
73600;BME280;61877;48.246;9.220;2023-05-21T02:58:01;93689.22;;;10.05;95.56
73600;BME280;61877;48.246;9.220;2023-05-21T03:00:27;93690.28;;;10.00;95.87
73600;BME280;61877;48.246;9.220;2023-05-21T03:02:52;93689.81;;;9.98;96.04
73600;BME280;61877;48.246;9.220;2023-05-21T03:05:20;93687.06;;;9.95;96.56
73600;BME280;61877;48.246;9.220;2023-05-21T03:07:45;93686.81;;;10.00;96.03
73600;BME280;61877;48.246;9.220;2023-05-21T03:10:17;93691.75;;;9.98;95.70
73600;BME280;61877;48.246;9.220;2023-05-21T03:12:42;93685.59;;;9.97;95.63
73600;BME280;61877;48.246;9.220;2023-05-21T03:15:11;93685.25;;;9.99;95.74
73600;BME280;61877;48.246;9.220;2023-05-21T03:17:37;93681.38;;;9.96;95.78
73600;BME280;61877;48.246;9.220;2023-05-21T03:20:03;93682.81;;;9.94;96.06
73600;BME280;61877;48.246;9.220;2023-05-21T03:22:30;93686.53;;;9.89;95.66
73600;BME280;61877;48.246;9.220;2023-05-21T03:24:55;93688.78;;;9.87;95.97
73600;BME280;61877;48.246;9.220;2023-05-21T03:27:21;93690.00;;;9.90;96.01
73600;BME280;61877;48.246;9.220;2023-05-21T03:29:46;93695.25;;;9.86;95.57
73600;BME280;61877;48.246;9.220;2023-05-21T03:32:12;93690.41;;;9.76;95.33
73600;BME280;61877;48.246;9.220;2023-05-21T03:34:38;93692.28;;;9.76;95.82
73600;BME280;61877;48.246;9.220;2023-05-21T03:37:04;93688.06;;;9.75;96.28
73600;BME280;61877;48.246;9.220;2023-05-21T03:39:31;93694.06;;;9.72;95.40
73600;BME280;61877;48.246;9.220;2023-05-21T03:41:56;93692.53;;;9.71;95.23
73600;BME280;61877;48.246;9.220;2023-05-21T03:44:21;93687.84;;;9.68;95.82
73600;BME280;61877;48.246;9.220;2023-05-21T03:46:47;93690.00;;;9.62;95.37
73600;BME280;61877;48.246;9.220;2023-05-21T03:49:13;93686.22;;;9.63;95.75
73600;BME280;61877;48.246;9.220;2023-05-21T03:51:38;93688.09;;;9.63;95.42
73600;BME280;61877;48.246;9.220;2023-05-21T03:54:04;93689.53;;;9.60;95.37
73600;BME280;61877;48.246;9.220;2023-05-21T03:56:31;93687.66;;;9.61;95.65
73600;BME280;61877;48.246;9.220;2023-05-21T03:58:56;93698.81;;;9.63;95.51
73600;BME280;61877;48.246;9.220;2023-05-21T04:01:22;93693.09;;;9.64;95.72
73600;BME280;61877;48.246;9.220;2023-05-21T04:03:47;93696.34;;;9.70;95.90
73600;BME280;61877;48.246;9.220;2023-05-21T04:06:16;93695.88;;;9.68;95.54
73600;BME280;61877;48.246;9.220;2023-05-21T04:08:41;93696.75;;;9.72;94.73
73600;BME280;61877;48.246;9.220;2023-05-21T04:11:07;93695.66;;;9.73;95.74
73600;BME280;61877;48.246;9.220;2023-05-21T04:13:37;93703.44;;;9.78;95.47
73600;BME280;61877;48.246;9.220;2023-05-21T04:16:03;93707.09;;;9.85;94.81
73600;BME280;61877;48.246;9.220;2023-05-21T04:18:28;93710.56;;;9.86;94.74
73600;BME280;61877;48.246;9.220;2023-05-21T04:20:54;93709.00;;;9.85;95.00
73600;BME280;61877;48.246;9.220;2023-05-21T04:23:19;93713.56;;;9.84;94.58
73600;BME280;61877;48.246;9.220;2023-05-21T04:25:48;93718.34;;;9.91;94.86
73600;BME280;61877;48.246;9.220;2023-05-21T04:28:19;93723.22;;;10.01;94.72
73600;BME280;61877;48.246;9.220;2023-05-21T04:30:46;93725.22;;;10.04;94.02
73600;BME280;61877;48.246;9.220;2023-05-21T04:33:15;93731.13;;;10.09;94.53
73600;BME280;61877;48.246;9.220;2023-05-21T04:35:40;93725.19;;;10.16;93.93
73600;BME280;61877;48.246;9.220;2023-05-21T04:38:09;93733.75;;;10.21;93.14
73600;BME280;61877;48.246;9.220;2023-05-21T04:40:34;93728.06;;;10.23;92.55
73600;BME280;61877;48.246;9.220;2023-05-21T04:43:00;93723.22;;;10.28;92.79
73600;BME280;61877;48.246;9.220;2023-05-21T04:45:25;93728.75;;;10.35;92.80
73600;BME280;61877;48.246;9.220;2023-05-21T04:47:52;93732.66;;;10.38;93.26
73600;BME280;61877;48.246;9.220;2023-05-21T04:50:21;93730.59;;;10.47;93.18
73600;BME280;61877;48.246;9.220;2023-05-21T04:52:49;93732.31;;;10.55;92.49
73600;BME280;61877;48.246;9.220;2023-05-21T04:55:15;93733.66;;;10.61;92.95
73600;BME280;61877;48.246;9.220;2023-05-21T04:57:40;93732.00;;;10.72;92.61
73600;BME280;61877;48.246;9.220;2023-05-21T05:00:07;93734.41;;;10.77;92.27
73600;BME280;61877;48.246;9.220;2023-05-21T05:02:32;93735.00;;;10.86;92.05
73600;BME280;61877;48.246;9.220;2023-05-21T05:05:02;93733.63;;;10.92;92.06
73600;BME280;61877;48.246;9.220;2023-05-21T05:07:28;93744.13;;;10.97;91.73
73600;BME280;61877;48.246;9.220;2023-05-21T05:09:53;93735.28;;;11.12;91.29
73600;BME280;61877;48.246;9.220;2023-05-21T05:12:21;93731.88;;;11.15;90.56
73600;BME280;61877;48.246;9.220;2023-05-21T05:14:49;93732.31;;;11.17;89.49
73600;BME280;61877;48.246;9.220;2023-05-21T05:17:15;93740.25;;;11.29;89.74
73600;BME280;61877;48.246;9.220;2023-05-21T05:19:40;93744.06;;;11.44;89.77
73600;BME280;61877;48.246;9.220;2023-05-21T05:22:13;93742.97;;;11.64;89.65
73600;BME280;61877;48.246;9.220;2023-05-21T05:24:42;93731.38;;;11.79;87.61
73600;BME280;61877;48.246;9.220;2023-05-21T05:27:19;93735.50;;;11.92;87.01
73600;BME280;61877;48.246;9.220;2023-05-21T05:29:53;93742.94;;;11.99;86.91
73600;BME280;61877;48.246;9.220;2023-05-21T05:32:21;93730.91;;;12.12;86.15
73600;BME280;61877;48.246;9.220;2023-05-21T05:34:47;93730.25;;;12.18;86.42
73600;BME280;61877;48.246;9.220;2023-05-21T05:37:38;93734.56;;;12.23;85.85
73600;BME280;61877;48.246;9.220;2023-05-21T05:40:24;93728.03;;;12.43;86.55
73600;BME280;61877;48.246;9.220;2023-05-21T05:42:51;93735.81;;;12.48;85.26
73600;BME280;61877;48.246;9.220;2023-05-21T05:45:17;93728.63;;;12.55;85.11
73600;BME280;61877;48.246;9.220;2023-05-21T05:47:45;93731.59;;;12.69;85.38
73600;BME280;61877;48.246;9.220;2023-05-21T05:50:13;93733.50;;;12.69;84.07
73600;BME280;61877;48.246;9.220;2023-05-21T05:52:40;93736.75;;;12.78;83.64
73600;BME280;61877;48.246;9.220;2023-05-21T05:55:11;93735.13;;;12.96;84.08
73600;BME280;61877;48.246;9.220;2023-05-21T06:03:21;93726.31;;;13.48;82.57
73600;BME280;61877;48.246;9.220;2023-05-21T06:05:46;93728.84;;;13.63;81.74
73600;BME280;61877;48.246;9.220;2023-05-21T06:08:13;93727.78;;;13.71;81.50
73600;BME280;61877;48.246;9.220;2023-05-21T06:10:39;93723.38;;;13.86;79.48
73600;BME280;61877;48.246;9.220;2023-05-21T06:13:07;93729.63;;;13.93;79.79
73600;BME280;61877;48.246;9.220;2023-05-21T06:15:44;93730.19;;;14.06;79.08
73600;BME280;61877;48.246;9.220;2023-05-21T06:18:10;93734.91;;;14.16;79.09
73600;BME280;61877;48.246;9.220;2023-05-21T06:20:38;93730.88;;;14.33;78.59
73600;BME280;61877;48.246;9.220;2023-05-21T06:23:04;93725.28;;;14.48;77.66
73600;BME280;61877;48.246;9.220;2023-05-21T06:25:30;93719.34;;;14.69;78.67
73600;BME280;61877;48.246;9.220;2023-05-21T06:27:56;93715.88;;;14.72;77.67
73600;BME280;61877;48.246;9.220;2023-05-21T06:30:21;93717.44;;;14.73;76.89
73600;BME280;61877;48.246;9.220;2023-05-21T06:32:47;93728.44;;;14.97;76.40
73600;BME280;61877;48.246;9.220;2023-05-21T06:35:12;93712.53;;;14.85;76.47
73600;BME280;61877;48.246;9.220;2023-05-21T06:37:38;93721.53;;;15.00;77.61
73600;BME280;61877;48.246;9.220;2023-05-21T06:40:04;93722.50;;;15.21;76.71
73600;BME280;61877;48.246;9.220;2023-05-21T06:42:31;93727.81;;;15.58;75.89
73600;BME280;61877;48.246;9.220;2023-05-21T06:44:56;93720.09;;;15.60;76.29
73600;BME280;61877;48.246;9.220;2023-05-21T06:47:22;93721.91;;;15.45;77.25
73600;BME280;61877;48.246;9.220;2023-05-21T06:49:47;93718.63;;;15.73;76.36
73600;BME280;61877;48.246;9.220;2023-05-21T06:52:13;93724.91;;;15.91;76.58
73600;BME280;61877;48.246;9.220;2023-05-21T06:54:38;93727.31;;;16.14;75.83
73600;BME280;61877;48.246;9.220;2023-05-21T07:05:41;93727.22;;;17.35;72.09
73600;BME280;61877;48.246;9.220;2023-05-21T07:08:07;93724.16;;;17.57;71.06
73600;BME280;61877;48.246;9.220;2023-05-21T07:10:35;93721.78;;;17.77;71.27
73600;BME280;61877;48.246;9.220;2023-05-21T07:13:01;93715.59;;;17.73;70.36
73600;BME280;61877;48.246;9.220;2023-05-21T07:15:26;93724.88;;;17.79;70.41
73600;BME280;61877;48.246;9.220;2023-05-21T07:17:52;93720.59;;;17.85;70.74
73600;BME280;61877;48.246;9.220;2023-05-21T07:20:18;93720.19;;;18.00;71.61
73600;BME280;61877;48.246;9.220;2023-05-21T07:22:45;93720.94;;;17.97;70.78
73600;BME280;61877;48.246;9.220;2023-05-21T07:25:10;93719.81;;;17.84;70.21
73600;BME280;61877;48.246;9.220;2023-05-21T07:27:36;93722.50;;;18.06;69.98
73600;BME280;61877;48.246;9.220;2023-05-21T07:30:02;93723.22;;;18.20;69.60
73600;BME280;61877;48.246;9.220;2023-05-21T07:32:27;93721.63;;;18.26;68.81
73600;BME280;61877;48.246;9.220;2023-05-21T07:34:52;93717.03;;;18.16;69.44
73600;BME280;61877;48.246;9.220;2023-05-21T07:37:18;93719.25;;;18.42;69.22
73600;BME280;61877;48.246;9.220;2023-05-21T07:39:48;93722.97;;;18.80;68.55
73600;BME280;61877;48.246;9.220;2023-05-21T07:42:26;93727.19;;;18.91;66.77
73600;BME280;61877;48.246;9.220;2023-05-21T07:44:51;93720.44;;;19.10;66.20
73600;BME280;61877;48.246;9.220;2023-05-21T07:47:17;93712.19;;;19.20;67.46
73600;BME280;61877;48.246;9.220;2023-05-21T07:49:42;93709.47;;;19.24;66.37
73600;BME280;61877;48.246;9.220;2023-05-21T07:52:08;93711.03;;;19.21;65.97
73600;BME280;61877;48.246;9.220;2023-05-21T07:54:33;93711.13;;;19.11;66.42
73600;BME280;61877;48.246;9.220;2023-05-21T07:57:00;93710.59;;;19.30;66.96
73600;BME280;61877;48.246;9.220;2023-05-21T07:59:28;93709.78;;;19.37;66.63
73600;BME280;61877;48.246;9.220;2023-05-21T08:01:57;93716.38;;;19.36;66.93
73600;BME280;61877;48.246;9.220;2023-05-21T08:07:08;93720.50;;;19.58;66.73
73600;BME280;61877;48.246;9.220;2023-05-21T08:09:35;93709.28;;;19.49;67.00
73600;BME280;61877;48.246;9.220;2023-05-21T08:12:02;93719.91;;;19.77;66.35
73600;BME280;61877;48.246;9.220;2023-05-21T08:14:28;93714.84;;;19.79;65.13
73600;BME280;61877;48.246;9.220;2023-05-21T08:16:53;93711.31;;;19.82;67.58
73600;BME280;61877;48.246;9.220;2023-05-21T08:19:19;93713.59;;;19.87;66.07
73600;BME280;61877;48.246;9.220;2023-05-21T08:21:45;93713.09;;;19.99;65.05
73600;BME280;61877;48.246;9.220;2023-05-21T08:24:13;93721.31;;;19.92;66.08
73600;BME280;61877;48.246;9.220;2023-05-21T08:26:38;93719.00;;;19.90;63.73
73600;BME280;61877;48.246;9.220;2023-05-21T08:29:14;93710.97;;;20.13;66.98
73600;BME280;61877;48.246;9.220;2023-05-21T08:31:39;93713.31;;;20.15;63.51
73600;BME280;61877;48.246;9.220;2023-05-21T08:34:34;93710.50;;;20.56;60.58
73600;BME280;61877;48.246;9.220;2023-05-21T08:37:02;93710.22;;;20.77;60.83
73600;BME280;61877;48.246;9.220;2023-05-21T08:42:47;93702.50;;;21.02;59.73
73600;BME280;61877;48.246;9.220;2023-05-21T08:45:20;93705.13;;;21.09;58.19
73600;BME280;61877;48.246;9.220;2023-05-21T08:48:18;93706.59;;;21.40;59.16
73600;BME280;61877;48.246;9.220;2023-05-21T08:50:44;93711.97;;;21.93;56.79
73600;BME280;61877;48.246;9.220;2023-05-21T08:53:10;93708.81;;;21.95;56.62
73600;BME280;61877;48.246;9.220;2023-05-21T08:55:37;93713.66;;;22.07;56.01
73600;BME280;61877;48.246;9.220;2023-05-21T08:58:05;93712.00;;;22.52;55.85
73600;BME280;61877;48.246;9.220;2023-05-21T09:00:32;93718.19;;;22.75;55.06
73600;BME280;61877;48.246;9.220;2023-05-21T09:02:58;93720.25;;;22.29;54.18
73600;BME280;61877;48.246;9.220;2023-05-21T09:05:24;93715.16;;;22.89;54.49
73600;BME280;61877;48.246;9.220;2023-05-21T09:07:55;93722.19;;;23.58;52.17
73600;BME280;61877;48.246;9.220;2023-05-21T09:10:37;93720.66;;;23.41;51.54
73600;BME280;61877;48.246;9.220;2023-05-21T09:13:03;93710.38;;;23.61;51.15
73600;BME280;61877;48.246;9.220;2023-05-21T09:15:29;93722.78;;;23.98;51.94
73600;BME280;61877;48.246;9.220;2023-05-21T09:17:56;93714.75;;;23.91;49.69
73600;BME280;61877;48.246;9.220;2023-05-21T09:20:27;93716.00;;;23.86;48.09
73600;BME280;61877;48.246;9.220;2023-05-21T09:22:54;93709.28;;;23.59;51.58
73600;BME280;61877;48.246;9.220;2023-05-21T09:25:21;93716.25;;;24.08;51.34
73600;BME280;61877;48.246;9.220;2023-05-21T09:27:47;93713.63;;;24.62;48.44
73600;BME280;61877;48.246;9.220;2023-05-21T09:30:16;93715.47;;;24.23;48.88
73600;BME280;61877;48.246;9.220;2023-05-21T09:32:51;93716.72;;;24.35;48.17
73600;BME280;61877;48.246;9.220;2023-05-21T09:35:21;93712.94;;;24.99;48.39
73600;BME280;61877;48.246;9.220;2023-05-21T09:37:47;93716.53;;;24.71;46.98
73600;BME280;61877;48.246;9.220;2023-05-21T09:40:17;93720.19;;;24.93;50.06
73600;BME280;61877;48.246;9.220;2023-05-21T09:42:53;93720.66;;;25.04;47.22
73600;BME280;61877;48.246;9.220;2023-05-21T09:45:53;93720.91;;;25.22;46.46
73600;BME280;61877;48.246;9.220;2023-05-21T09:48:32;93718.72;;;25.17;47.99
73600;BME280;61877;48.246;9.220;2023-05-21T09:51:12;93719.81;;;25.32;47.90
73600;BME280;61877;48.246;9.220;2023-05-21T09:53:49;93720.81;;;25.51;47.18
73600;BME280;61877;48.246;9.220;2023-05-21T09:56:18;93715.22;;;25.41;48.03
73600;BME280;61877;48.246;9.220;2023-05-21T09:58:51;93720.59;;;25.70;46.48
73600;BME280;61877;48.246;9.220;2023-05-21T10:01:18;93715.34;;;25.97;46.01
73600;BME280;61877;48.246;9.220;2023-05-21T10:03:45;93712.38;;;25.92;45.11
73600;BME280;61877;48.246;9.220;2023-05-21T10:06:13;93722.22;;;26.27;44.87
73600;BME280;61877;48.246;9.220;2023-05-21T10:08:43;93706.97;;;26.47;44.41
73600;BME280;61877;48.246;9.220;2023-05-21T10:11:10;93702.91;;;26.74;42.20
73600;BME280;61877;48.246;9.220;2023-05-21T10:13:38;93709.38;;;26.24;43.44
73600;BME280;61877;48.246;9.220;2023-05-21T10:16:05;93709.31;;;27.01;42.97
73600;BME280;61877;48.246;9.220;2023-05-21T10:18:31;93714.03;;;27.44;42.17
73600;BME280;61877;48.246;9.220;2023-05-21T10:21:00;93706.84;;;27.46;39.07
73600;BME280;61877;48.246;9.220;2023-05-21T10:23:28;93713.47;;;27.27;39.53
73600;BME280;61877;48.246;9.220;2023-05-21T10:25:54;93711.28;;;26.70;40.54
73600;BME280;61877;48.246;9.220;2023-05-21T10:28:21;93713.31;;;27.00;40.57
73600;BME280;61877;48.246;9.220;2023-05-21T10:30:48;93712.50;;;26.91;40.85
73600;BME280;61877;48.246;9.220;2023-05-21T10:33:22;93708.81;;;27.15;38.30
73600;BME280;61877;48.246;9.220;2023-05-21T10:57:05;93707.69;;;26.60;41.82
73600;BME280;61877;48.246;9.220;2023-05-21T10:59:39;93705.41;;;27.11;39.92
73600;BME280;61877;48.246;9.220;2023-05-21T11:02:09;93705.75;;;26.92;38.62
73600;BME280;61877;48.246;9.220;2023-05-21T11:04:35;93694.59;;;27.17;41.92
73600;BME280;61877;48.246;9.220;2023-05-21T11:07:01;93693.88;;;26.73;40.18
73600;BME280;61877;48.246;9.220;2023-05-21T11:09:26;93696.53;;;27.38;39.51
73600;BME280;61877;48.246;9.220;2023-05-21T11:11:55;93701.56;;;27.70;39.61
73600;BME280;61877;48.246;9.220;2023-05-21T11:14:33;93710.03;;;27.36;39.89
73600;BME280;61877;48.246;9.220;2023-05-21T11:17:09;93707.88;;;27.40;39.67
73600;BME280;61877;48.246;9.220;2023-05-21T11:19:36;93706.44;;;27.05;39.14
73600;BME280;61877;48.246;9.220;2023-05-21T11:22:26;93704.66;;;27.11;40.09
73600;BME280;61877;48.246;9.220;2023-05-21T11:24:57;93708.25;;;27.51;38.77
73600;BME280;61877;48.246;9.220;2023-05-21T11:27:32;93702.28;;;27.61;42.42
73600;BME280;61877;48.246;9.220;2023-05-21T11:30:03;93709.50;;;27.28;40.13
73600;BME280;61877;48.246;9.220;2023-05-21T11:32:28;93707.94;;;26.97;41.08
73600;BME280;61877;48.246;9.220;2023-05-21T11:35:01;93709.25;;;27.14;40.13
73600;BME280;61877;48.246;9.220;2023-05-21T11:37:28;93706.91;;;27.03;42.16
73600;BME280;61877;48.246;9.220;2023-05-21T11:40:14;93713.03;;;27.29;40.64
73600;BME280;61877;48.246;9.220;2023-05-21T11:42:40;93707.25;;;27.75;39.13
73600;BME280;61877;48.246;9.220;2023-05-21T11:45:10;93715.81;;;27.38;39.81
73600;BME280;61877;48.246;9.220;2023-05-21T11:47:36;93721.41;;;27.56;38.64
73600;BME280;61877;48.246;9.220;2023-05-21T11:50:05;93721.31;;;27.77;37.94
73600;BME280;61877;48.246;9.220;2023-05-21T11:52:37;93718.06;;;27.61;40.75
73600;BME280;61877;48.246;9.220;2023-05-21T11:55:03;93718.31;;;27.45;40.02
73600;BME280;61877;48.246;9.220;2023-05-21T11:57:30;93719.53;;;27.44;40.05
73600;BME280;61877;48.246;9.220;2023-05-21T11:59:57;93720.22;;;27.66;38.45
73600;BME280;61877;48.246;9.220;2023-05-21T12:02:25;93723.38;;;27.25;38.83
73600;BME280;61877;48.246;9.220;2023-05-21T12:04:51;93720.78;;;27.52;41.48
73600;BME280;61877;48.246;9.220;2023-05-21T12:07:17;93731.16;;;27.39;40.34
73600;BME280;61877;48.246;9.220;2023-05-21T12:09:45;93724.94;;;27.26;39.63
73600;BME280;61877;48.246;9.220;2023-05-21T12:12:16;93725.28;;;26.85;39.41
73600;BME280;61877;48.246;9.220;2023-05-21T12:14:42;93728.75;;;26.20;40.44
73600;BME280;61877;48.246;9.220;2023-05-21T12:17:08;93734.06;;;26.02;41.64
73600;BME280;61877;48.246;9.220;2023-05-21T12:19:36;93740.97;;;26.07;42.42
73600;BME280;61877;48.246;9.220;2023-05-21T12:22:01;93737.28;;;25.76;41.19
73600;BME280;61877;48.246;9.220;2023-05-21T12:24:27;93748.38;;;25.72;41.59
73600;BME280;61877;48.246;9.220;2023-05-21T12:26:53;93739.38;;;25.72;42.48
73600;BME280;61877;48.246;9.220;2023-05-21T12:29:18;93749.03;;;25.76;41.88
73600;BME280;61877;48.246;9.220;2023-05-21T12:31:48;93744.78;;;24.84;43.70
73600;BME280;61877;48.246;9.220;2023-05-21T12:34:14;93741.97;;;25.12;43.52
73600;BME280;61877;48.246;9.220;2023-05-21T12:36:48;93746.16;;;25.29;38.97
73600;BME280;61877;48.246;9.220;2023-05-21T12:39:14;93741.78;;;25.57;38.59
73600;BME280;61877;48.246;9.220;2023-05-21T12:41:39;93749.16;;;25.48;41.31
73600;BME280;61877;48.246;9.220;2023-05-21T12:44:05;93751.78;;;25.64;41.83
73600;BME280;61877;48.246;9.220;2023-05-21T12:46:31;93745.75;;;25.56;41.34
73600;BME280;61877;48.246;9.220;2023-05-21T12:48:56;93748.69;;;25.99;42.97
73600;BME280;61877;48.246;9.220;2023-05-21T12:51:25;93752.28;;;26.21;39.72
73600;BME280;61877;48.246;9.220;2023-05-21T12:53:54;93758.84;;;25.65;38.91
73600;BME280;61877;48.246;9.220;2023-05-21T12:56:43;93763.78;;;25.57;41.36
73600;BME280;61877;48.246;9.220;2023-05-21T12:59:11;93764.84;;;25.34;42.64
73600;BME280;61877;48.246;9.220;2023-05-21T13:01:40;93756.53;;;25.38;44.20
73600;BME280;61877;48.246;9.220;2023-05-21T13:04:08;93755.88;;;25.47;42.73
73600;BME280;61877;48.246;9.220;2023-05-21T13:06:41;93751.69;;;25.67;40.70
73600;BME280;61877;48.246;9.220;2023-05-21T13:09:08;93754.22;;;25.62;41.64
73600;BME280;61877;48.246;9.220;2023-05-21T13:11:33;93753.66;;;25.54;41.94
73600;BME280;61877;48.246;9.220;2023-05-21T13:13:59;93756.72;;;25.81;41.38
73600;BME280;61877;48.246;9.220;2023-05-21T13:16:29;93757.28;;;25.76;41.47
73600;BME280;61877;48.246;9.220;2023-05-21T13:18:55;93748.69;;;25.99;40.93
73600;BME280;61877;48.246;9.220;2023-05-21T13:21:20;93751.91;;;25.73;41.88
73600;BME280;61877;48.246;9.220;2023-05-21T13:23:47;93747.69;;;26.40;42.23
73600;BME280;61877;48.246;9.220;2023-05-21T13:26:17;93743.81;;;26.50;40.69
73600;BME280;61877;48.246;9.220;2023-05-21T13:28:42;93748.63;;;26.71;39.16
73600;BME280;61877;48.246;9.220;2023-05-21T13:31:08;93746.19;;;27.47;37.17
73600;BME280;61877;48.246;9.220;2023-05-21T13:33:33;93743.38;;;28.17;36.17
73600;BME280;61877;48.246;9.220;2023-05-21T13:35:59;93742.34;;;28.87;37.04
73600;BME280;61877;48.246;9.220;2023-05-21T13:38:24;93751.22;;;30.10;33.62
73600;BME280;61877;48.246;9.220;2023-05-21T13:40:55;93745.34;;;30.65;30.98
73600;BME280;61877;48.246;9.220;2023-05-21T13:43:22;93743.28;;;31.12;30.69
73600;BME280;61877;48.246;9.220;2023-05-21T13:45:47;93745.81;;;31.01;28.07
73600;BME280;61877;48.246;9.220;2023-05-21T13:48:13;93748.38;;;29.54;29.33
73600;BME280;61877;48.246;9.220;2023-05-21T13:50:44;93744.03;;;29.71;29.79
73600;BME280;61877;48.246;9.220;2023-05-21T13:53:10;93743.22;;;30.12;27.46